PWSweather.com
Personal Weather Stations
Station Observations
FARMTALK
Wv, Procious, WV 25164

WvProcious, WV 25164

Lat: 38.483056, Lon: -81.159722

Elevation: 784

Station Type: Weatherwise 1090

www.fitzweather.com

High Low Average
Temperature 43.3°F6.3°C 27.7°F-2.4°C 34.4°F1.3°C
Dew Point 32.4°F0.2°C 24.3°F-4.3°C 28.9°F-1.7°C
Winds 8.1 mph 13.0 kmh Calm Calm 3.0 mph ESE4.8 kmh ESE
Wind Gusts 13.6 mph21.9 kmh -- 5.0 mph8.0 kmh
Humidity 99% 52% 81%
Pressure 30.05 in1017.6 mb 29.93 in1013.5 mb -
Precipitation 0.00 in0.0 mm - -
Hour Temp Dew Point Humidity Winds Wind Gusts Pressure Precip Precip Rate Daily Precip Total
12:00 AM 36.7°F2.6°C 29.5°F-1.4°C 75% 1.9 mph ENE3.1 kmh ENE 3.8 mph6.1 kmh 29.98 in1015.2 mb 0.00 in0.0 mm 0.00 in0.0 mm 0.00 in0.0 mm
12:10 AM 36.7°F2.6°C 29.5°F-1.4°C 75% 2.9 mph E4.7 kmh E 4.5 mph7.2 kmh 29.97 in1014.9 mb 0.00 in0.0 mm 0.00 in0.0 mm 0.00 in0.0 mm
12:20 AM 36.5°F2.5°C 29.7°F-1.3°C 76% 3.3 mph E5.3 kmh E 6.0 mph9.7 kmh 29.97 in1014.9 mb 0.00 in0.0 mm 0.00 in0.0 mm 0.00 in0.0 mm
12:30 AM 36.0°F2.2°C 29.5°F-1.4°C 77% 2.0 mph E3.2 kmh E 3.8 mph6.1 kmh 29.98 in1015.2 mb 0.00 in0.0 mm 0.00 in0.0 mm 0.00 in0.0 mm
12:40 AM 35.8°F2.1°C 29.9°F-1.2°C 79% 3.3 mph NE5.3 kmh NE 6.0 mph9.7 kmh 29.97 in1014.9 mb 0.00 in0.0 mm 0.00 in0.0 mm 0.00 in0.0 mm
12:50 AM 35.6°F2.0°C 29.4°F-1.4°C 78% 3.1 mph NNE5.0 kmh NNE 5.4 mph8.7 kmh 29.97 in1014.9 mb 0.00 in0.0 mm 0.00 in0.0 mm 0.00 in0.0 mm
01:00 AM 35.8°F2.1°C 29.6°F-1.3°C 78% 3.2 mph NNE5.1 kmh NNE 6.0 mph9.7 kmh 29.98 in1015.2 mb 0.00 in0.0 mm 0.00 in0.0 mm 0.00 in0.0 mm
01:10 AM 35.8°F2.1°C 29.6°F-1.3°C 78% 3.9 mph E6.3 kmh E 6.0 mph9.7 kmh 29.98 in1015.2 mb 0.00 in0.0 mm 0.00 in0.0 mm 0.00 in0.0 mm
01:20 AM 35.2°F1.8°C 29.7°F-1.3°C 80% 2.2 mph NE3.5 kmh NE 4.5 mph7.2 kmh 29.97 in1014.9 mb 0.00 in0.0 mm 0.00 in0.0 mm 0.00 in0.0 mm
01:30 AM 35.1°F1.7°C 29.5°F-1.4°C 80% 2.2 mph NNE3.5 kmh NNE 3.8 mph6.1 kmh 29.98 in1015.2 mb 0.00 in0.0 mm 0.00 in0.0 mm 0.00 in0.0 mm
01:40 AM 34.7°F1.5°C 29.5°F-1.4°C 81% 2.2 mph NE3.5 kmh NE 3.1 mph5.0 kmh 29.98 in1015.2 mb 0.00 in0.0 mm 0.00 in0.0 mm 0.00 in0.0 mm
01:50 AM 34.7°F1.5°C 29.5°F-1.4°C 81% 2.6 mph E4.2 kmh E 4.5 mph7.2 kmh 29.98 in1015.2 mb 0.00 in0.0 mm 0.00 in0.0 mm 0.00 in0.0 mm
02:00 AM 34.5°F1.4°C 29.3°F-1.5°C 81% 2.0 mph ESE3.2 kmh ESE 3.1 mph5.0 kmh 29.99 in1015.6 mb 0.00 in0.0 mm 0.00 in0.0 mm 0.00 in0.0 mm
02:10 AM 34.0°F1.1°C 28.8°F-1.8°C 81% 1.5 mph SE2.4 kmh SE 2.2 mph3.5 kmh 29.99 in1015.6 mb 0.00 in0.0 mm 0.00 in0.0 mm 0.00 in0.0 mm
02:20 AM 33.8°F1.0°C 29.5°F-1.4°C 84% 2.2 mph E3.5 kmh E 5.4 mph8.7 kmh 29.99 in1015.6 mb 0.00 in0.0 mm 0.00 in0.0 mm 0.00 in0.0 mm
02:30 AM 33.3°F0.7°C 29.3°F-1.5°C 85% 2.2 mph WSW3.5 kmh WSW 5.4 mph8.7 kmh 29.99 in1015.6 mb 0.00 in0.0 mm 0.00 in0.0 mm 0.00 in0.0 mm
02:40 AM 32.9°F0.5°C 28.9°F-1.7°C 85% 1.0 mph NNE1.6 kmh NNE 3.8 mph6.1 kmh 29.99 in1015.6 mb 0.00 in0.0 mm 0.00 in0.0 mm 0.00 in0.0 mm
02:50 AM 32.4°F0.2°C 28.9°F-1.7°C 87% 0.9 mph NE1.4 kmh NE 2.2 mph3.5 kmh 30.00 in1015.9 mb 0.00 in0.0 mm 0.00 in0.0 mm 0.00 in0.0 mm
03:00 AM 31.8°F-0.1°C 28.7°F-1.8°C 88% 0.9 mph NNW1.4 kmh NNW 2.2 mph3.5 kmh 29.99 in1015.6 mb 0.00 in0.0 mm 0.00 in0.0 mm 0.00 in0.0 mm
03:10 AM 31.8°F-0.1°C 29.0°F-1.7°C 89% 1.5 mph S2.4 kmh S 2.2 mph3.5 kmh 29.99 in1015.6 mb 0.00 in0.0 mm 0.00 in0.0 mm 0.00 in0.0 mm
03:20 AM 31.6°F-0.2°C 28.8°F-1.8°C 89% 1.1 mph N1.8 kmh N 3.1 mph5.0 kmh 29.99 in1015.6 mb 0.00 in0.0 mm 0.00 in0.0 mm 0.00 in0.0 mm
03:30 AM 30.9°F-0.6°C 28.3°F-2.1°C 90% 1.1 mph NW1.8 kmh NW 2.2 mph3.5 kmh 29.99 in1015.6 mb 0.00 in0.0 mm 0.00 in0.0 mm 0.00 in0.0 mm
03:40 AM 30.2°F-1.0°C 27.9°F-2.3°C 91% 0.2 mph WSW0.3 kmh WSW 0.7 mph1.1 kmh 29.99 in1015.6 mb 0.00 in0.0 mm 0.00 in0.0 mm 0.00 in0.0 mm
03:50 AM 30.0°F-1.1°C 28.0°F-2.2°C 92% 0.2 mph W0.3 kmh W 1.6 mph2.6 kmh 29.99 in1015.6 mb 0.00 in0.0 mm 0.00 in0.0 mm 0.00 in0.0 mm
04:00 AM 29.8°F-1.2°C 27.8°F-2.3°C 92% 0.5 mph W0.8 kmh W 1.6 mph2.6 kmh 29.99 in1015.6 mb 0.00 in0.0 mm 0.00 in0.0 mm 0.00 in0.0 mm
04:10 AM 29.5°F-1.4°C 27.7°F-2.4°C 93% 1.1 mph S1.8 kmh S 1.6 mph2.6 kmh 29.99 in1015.6 mb 0.00 in0.0 mm 0.00 in0.0 mm 0.00 in0.0 mm
04:20 AM 28.9°F-1.7°C 27.4°F-2.6°C 94% Calm Calm -- 29.99 in1015.6 mb 0.00 in0.0 mm 0.00 in0.0 mm 0.00 in0.0 mm
04:30 AM 28.2°F-2.1°C 26.7°F-2.9°C 94% Calm Calm -- 30.00 in1015.9 mb 0.00 in0.0 mm 0.00 in0.0 mm 0.00 in0.0 mm
04:40 AM 28.0°F-2.2°C 26.6°F-3.0°C 94% Calm Calm -- 29.99 in1015.6 mb 0.00 in0.0 mm 0.00 in0.0 mm 0.00 in0.0 mm
04:50 AM 27.7°F-2.4°C 26.5°F-3.1°C 95% Calm Calm -- 29.99 in1015.6 mb 0.00 in0.0 mm 0.00 in0.0 mm 0.00 in0.0 mm
05:00 AM 27.7°F-2.4°C 26.5°F-3.1°C 95% Calm Calm -- 29.99 in1015.6 mb 0.00 in0.0 mm 0.00 in0.0 mm 0.00 in0.0 mm
05:10 AM 27.9°F-2.3°C 26.9°F-2.8°C 96% Calm Calm -- 29.99 in1015.6 mb 0.00 in0.0 mm 0.00 in0.0 mm 0.00 in0.0 mm
05:20 AM 28.2°F-2.1°C 27.2°F-2.7°C 96% Calm Calm -- 29.99 in1015.6 mb 0.00 in0.0 mm 0.00 in0.0 mm 0.00 in0.0 mm
05:30 AM 28.8°F-1.8°C 28.0°F-2.2°C 97% Calm Calm 0.7 mph1.1 kmh 30.00 in1015.9 mb 0.00 in0.0 mm 0.00 in0.0 mm 0.00 in0.0 mm
05:40 AM 29.3°F-1.5°C 28.6°F-1.9°C 97% 0.5 mph WSW0.8 kmh WSW 1.6 mph2.6 kmh 30.00 in1015.9 mb 0.00 in0.0 mm 0.00 in0.0 mm 0.00 in0.0 mm
05:50 AM 29.8°F-1.2°C 28.9°F-1.7°C 96% Calm Calm -- 30.00 in1015.9 mb 0.00 in0.0 mm 0.00 in0.0 mm 0.00 in0.0 mm
06:00 AM 30.2°F-1.0°C 29.2°F-1.6°C 96% 0.6 mph SW1.0 kmh SW 1.6 mph2.6 kmh 30.00 in1015.9 mb 0.00 in0.0 mm 0.00 in0.0 mm 0.00 in0.0 mm
06:10 AM 30.7°F-0.7°C 29.5°F-1.4°C 95% 0.9 mph W1.4 kmh W 1.6 mph2.6 kmh 30.00 in1015.9 mb 0.00 in0.0 mm 0.00 in0.0 mm 0.00 in0.0 mm
06:20 AM 31.6°F-0.2°C 30.4°F-0.9°C 95% 1.7 mph SE2.7 kmh SE 3.1 mph5.0 kmh 30.00 in1015.9 mb 0.00 in0.0 mm 0.00 in0.0 mm 0.00 in0.0 mm
06:30 AM 32.4°F0.2°C 30.6°F-0.8°C 93% 1.4 mph ESE2.3 kmh ESE 3.1 mph5.0 kmh 30.00 in1015.9 mb 0.00 in0.0 mm 0.00 in0.0 mm 0.00 in0.0 mm
06:40 AM 32.9°F0.5°C 30.3°F-0.9°C 90% 2.2 mph NE3.5 kmh NE 4.5 mph7.2 kmh 30.00 in1015.9 mb 0.00 in0.0 mm 0.00 in0.0 mm 0.00 in0.0 mm
06:50 AM 33.1°F0.6°C 30.2°F-1.0°C 89% 1.2 mph NNE1.9 kmh NNE 2.2 mph3.5 kmh 30.01 in1016.3 mb 0.00 in0.0 mm 0.00 in0.0 mm 0.00 in0.0 mm
07:00 AM 33.3°F0.7°C 29.8°F-1.2°C 87% 1.7 mph ENE2.7 kmh ENE 3.1 mph5.0 kmh 30.01 in1016.3 mb 0.00 in0.0 mm 0.00 in0.0 mm 0.00 in0.0 mm
07:10 AM 33.3°F0.7°C 29.8°F-1.2°C 87% 2.7 mph NE4.3 kmh NE 3.1 mph5.0 kmh 30.01 in1016.3 mb 0.00 in0.0 mm 0.00 in0.0 mm 0.00 in0.0 mm
07:20 AM 33.4°F0.8°C 29.7°F-1.3°C 86% 2.8 mph NE4.5 kmh NE 5.4 mph8.7 kmh 30.01 in1016.3 mb 0.00 in0.0 mm 0.00 in0.0 mm 0.00 in0.0 mm
07:30 AM 33.3°F0.7°C 29.0°F-1.7°C 84% 2.4 mph E3.9 kmh E 4.5 mph7.2 kmh 30.02 in1016.6 mb 0.00 in0.0 mm 0.00 in0.0 mm 0.00 in0.0 mm
07:40 AM 33.3°F0.7°C 28.7°F-1.8°C 83% 2.9 mph ENE4.7 kmh ENE 5.4 mph8.7 kmh 30.01 in1016.3 mb 0.00 in0.0 mm 0.00 in0.0 mm 0.00 in0.0 mm
07:50 AM 33.1°F0.6°C 28.5°F-1.9°C 83% 1.5 mph NE2.4 kmh NE 2.2 mph3.5 kmh 30.02 in1016.6 mb 0.00 in0.0 mm 0.00 in0.0 mm 0.00 in0.0 mm
08:00 AM 32.9°F0.5°C 28.3°F-2.1°C 83% 2.8 mph E4.5 kmh E 6.0 mph9.7 kmh 30.03 in1016.9 mb 0.00 in0.0 mm 0.00 in0.0 mm 0.00 in0.0 mm
08:10 AM 32.9°F0.5°C 28.3°F-2.1°C 83% 1.5 mph NE2.4 kmh NE 4.5 mph7.2 kmh 30.03 in1016.9 mb 0.00 in0.0 mm 0.00 in0.0 mm 0.00 in0.0 mm
08:20 AM 32.9°F0.5°C 28.3°F-2.1°C 83% 2.3 mph ESE3.7 kmh ESE 3.1 mph5.0 kmh 30.02 in1016.6 mb 0.00 in0.0 mm 0.00 in0.0 mm 0.00 in0.0 mm
08:30 AM 32.9°F0.5°C 28.0°F-2.2°C 82% 2.9 mph E4.7 kmh E 3.1 mph5.0 kmh 30.03 in1016.9 mb 0.00 in0.0 mm 0.00 in0.0 mm 0.00 in0.0 mm
08:40 AM 33.1°F0.6°C 28.2°F-2.1°C 82% 2.8 mph E4.5 kmh E 3.8 mph6.1 kmh 30.04 in1017.3 mb 0.00 in0.0 mm 0.00 in0.0 mm 0.00 in0.0 mm
08:50 AM 33.3°F0.7°C 28.1°F-2.2°C 81% 3.0 mph ESE4.8 kmh ESE 4.5 mph7.2 kmh 30.04 in1017.3 mb 0.00 in0.0 mm 0.00 in0.0 mm 0.00 in0.0 mm
09:00 AM 33.6°F0.9°C 28.4°F-2.0°C 81% 2.4 mph E3.9 kmh E 4.5 mph7.2 kmh 30.04 in1017.3 mb 0.00 in0.0 mm 0.00 in0.0 mm 0.00 in0.0 mm
09:10 AM 33.8°F1.0°C 28.3°F-2.1°C 80% 3.1 mph NE5.0 kmh NE 3.8 mph6.1 kmh 30.04 in1017.3 mb 0.00 in0.0 mm 0.00 in0.0 mm 0.00 in0.0 mm
09:20 AM 34.2°F1.2°C 28.3°F-2.1°C 79% 3.2 mph ESE5.1 kmh ESE 3.8 mph6.1 kmh 30.04 in1017.3 mb 0.00 in0.0 mm 0.00 in0.0 mm 0.00 in0.0 mm
09:30 AM 34.0°F1.1°C 28.2°F-2.1°C 79% 4.4 mph ENE7.1 kmh ENE 6.0 mph9.7 kmh 30.04 in1017.3 mb 0.00 in0.0 mm 0.00 in0.0 mm 0.00 in0.0 mm
09:40 AM 34.2°F1.2°C 28.3°F-2.1°C 79% 3.9 mph E6.3 kmh E 7.6 mph12.2 kmh 30.04 in1017.3 mb 0.00 in0.0 mm 0.00 in0.0 mm 0.00 in0.0 mm
09:50 AM 34.5°F1.4°C 29.0°F-1.7°C 80% 3.3 mph E5.3 kmh E 4.5 mph7.2 kmh 30.04 in1017.3 mb 0.00 in0.0 mm 0.00 in0.0 mm 0.00 in0.0 mm
10:00 AM 34.5°F1.4°C 28.4°F-2.0°C 78% 4.6 mph ENE7.4 kmh ENE 6.9 mph11.1 kmh 30.05 in1017.6 mb 0.00 in0.0 mm 0.00 in0.0 mm 0.00 in0.0 mm
10:10 AM 34.7°F1.5°C 28.6°F-1.9°C 78% 3.9 mph E6.3 kmh E 6.0 mph9.7 kmh 30.05 in1017.6 mb 0.00 in0.0 mm 0.00 in0.0 mm 0.00 in0.0 mm
10:20 AM 34.9°F1.6°C 28.7°F-1.8°C 78% 3.9 mph ENE6.3 kmh ENE 5.4 mph8.7 kmh 30.05 in1017.6 mb 0.00 in0.0 mm 0.00 in0.0 mm 0.00 in0.0 mm
10:30 AM 35.2°F1.8°C 28.1°F-2.2°C 75% 5.1 mph ENE8.2 kmh ENE 9.2 mph14.8 kmh 30.04 in1017.3 mb 0.00 in0.0 mm 0.00 in0.0 mm 0.00 in0.0 mm
10:40 AM 36.0°F2.2°C 28.8°F-1.8°C 75% 4.9 mph E7.9 kmh E 7.6 mph12.2 kmh 30.04 in1017.3 mb 0.00 in0.0 mm 0.00 in0.0 mm 0.00 in0.0 mm
10:50 AM 36.5°F2.5°C 28.7°F-1.8°C 73% 4.0 mph E6.4 kmh E 6.0 mph9.7 kmh 30.04 in1017.3 mb 0.00 in0.0 mm 0.00 in0.0 mm 0.00 in0.0 mm
11:00 AM 36.1°F2.3°C 27.7°F-2.4°C 71% 4.5 mph E7.2 kmh E 6.9 mph11.1 kmh 30.04 in1017.3 mb 0.00 in0.0 mm 0.00 in0.0 mm 0.00 in0.0 mm
11:10 AM 37.0°F2.8°C 27.8°F-2.3°C 69% 5.7 mph E9.2 kmh E 9.2 mph14.8 kmh 30.04 in1017.3 mb 0.00 in0.0 mm 0.00 in0.0 mm 0.00 in0.0 mm
11:20 AM 37.9°F3.3°C 27.6°F-2.4°C 66% 4.8 mph ENE7.7 kmh ENE 7.6 mph12.2 kmh 30.03 in1016.9 mb 0.00 in0.0 mm 0.00 in0.0 mm 0.00 in0.0 mm
11:30 AM 38.5°F3.6°C 27.4°F-2.6°C 64% 3.8 mph NE6.1 kmh NE 8.3 mph13.4 kmh 30.03 in1016.9 mb 0.00 in0.0 mm 0.00 in0.0 mm 0.00 in0.0 mm
11:40 AM 37.8°F3.2°C 25.9°F-3.4°C 62% 5.2 mph SE8.4 kmh SE 7.6 mph12.2 kmh 30.02 in1016.6 mb 0.00 in0.0 mm 0.00 in0.0 mm 0.00 in0.0 mm
11:50 AM 37.9°F3.3°C 26.1°F-3.3°C 62% 3.1 mph SSW5.0 kmh SSW 4.5 mph7.2 kmh 30.03 in1016.9 mb 0.00 in0.0 mm 0.00 in0.0 mm 0.00 in0.0 mm
12:00 PM 39.7°F4.3°C 25.3°F-3.7°C 56% 4.4 mph NE7.1 kmh NE 7.6 mph12.2 kmh 30.02 in1016.6 mb 0.00 in0.0 mm 0.00 in0.0 mm 0.00 in0.0 mm
12:10 PM 37.9°F3.3°C 24.9°F-3.9°C 59% 5.2 mph E8.4 kmh E 8.3 mph13.4 kmh 30.02 in1016.6 mb 0.00 in0.0 mm 0.00 in0.0 mm 0.00 in0.0 mm
12:20 PM 37.4°F3.0°C 25.6°F-3.6°C 62% 7.0 mph E11.3 kmh E 9.8 mph15.8 kmh 30.01 in1016.3 mb 0.00 in0.0 mm 0.00 in0.0 mm 0.00 in0.0 mm
12:30 PM 38.1°F3.4°C 26.7°F-2.9°C 63% 4.4 mph NE7.1 kmh NE 9.2 mph14.8 kmh 30.01 in1016.3 mb 0.00 in0.0 mm 0.00 in0.0 mm 0.00 in0.0 mm
12:40 PM 38.1°F3.4°C 25.9°F-3.4°C 61% 5.3 mph E8.5 kmh E 8.3 mph13.4 kmh 30.01 in1016.3 mb 0.00 in0.0 mm 0.00 in0.0 mm 0.00 in0.0 mm
12:50 PM 39.0°F3.9°C 25.9°F-3.4°C 59% 4.5 mph E7.2 kmh E 6.9 mph11.1 kmh 30.01 in1016.3 mb 0.00 in0.0 mm 0.00 in0.0 mm 0.00 in0.0 mm
01:00 PM 41.2°F5.1°C 26.7°F-2.9°C 56% 3.7 mph NE6.0 kmh NE 6.9 mph11.1 kmh 30.00 in1015.9 mb 0.00 in0.0 mm 0.00 in0.0 mm 0.00 in0.0 mm
01:10 PM 43.3°F6.3°C 26.9°F-2.8°C 52% 5.5 mph NE8.9 kmh NE 8.3 mph13.4 kmh 29.99 in1015.6 mb 0.00 in0.0 mm 0.00 in0.0 mm 0.00 in0.0 mm
01:20 PM 41.2°F5.1°C 24.9°F-3.9°C 52% 5.8 mph NE9.3 kmh NE 9.8 mph15.8 kmh 30.00 in1015.9 mb 0.00 in0.0 mm 0.00 in0.0 mm 0.00 in0.0 mm
01:30 PM 38.7°F3.7°C 24.3°F-4.3°C 56% 8.1 mph E13.0 kmh E 11.4 mph18.3 kmh 29.99 in1015.6 mb 0.00 in0.0 mm 0.00 in0.0 mm 0.00 in0.0 mm
01:40 PM 38.3°F3.5°C 26.4°F-3.1°C 62% 5.4 mph ENE8.7 kmh ENE 9.2 mph14.8 kmh 30.00 in1015.9 mb 0.00 in0.0 mm 0.00 in0.0 mm 0.00 in0.0 mm
01:50 PM 40.8°F4.9°C 28.4°F-2.0°C 61% 2.2 mph N3.5 kmh N 3.8 mph6.1 kmh 29.99 in1015.6 mb 0.00 in0.0 mm 0.00 in0.0 mm 0.00 in0.0 mm
02:00 PM 39.2°F4.0°C 28.4°F-2.0°C 65% 2.8 mph NW4.5 kmh NW 5.4 mph8.7 kmh 29.99 in1015.6 mb 0.00 in0.0 mm 0.00 in0.0 mm 0.00 in0.0 mm
02:10 PM 40.1°F4.5°C 29.3°F-1.5°C 65% 3.5 mph ENE5.6 kmh ENE 6.0 mph9.7 kmh 29.98 in1015.2 mb 0.00 in0.0 mm 0.00 in0.0 mm 0.00 in0.0 mm
02:20 PM 41.2°F5.1°C 26.7°F-2.9°C 56% 3.4 mph ESE5.5 kmh ESE 6.0 mph9.7 kmh 29.97 in1014.9 mb 0.00 in0.0 mm 0.00 in0.0 mm 0.00 in0.0 mm
02:30 PM 41.0°F5.0°C 26.1°F-3.3°C 55% 4.3 mph ESE6.9 kmh ESE 6.9 mph11.1 kmh 29.97 in1014.9 mb 0.00 in0.0 mm 0.00 in0.0 mm 0.00 in0.0 mm
02:40 PM 41.2°F5.1°C 24.9°F-3.9°C 52% 5.9 mph NE9.5 kmh NE 8.3 mph13.4 kmh 29.96 in1014.6 mb 0.00 in0.0 mm 0.00 in0.0 mm 0.00 in0.0 mm
02:50 PM 40.3°F4.6°C 26.7°F-2.9°C 58% 6.2 mph ENE10.0 kmh ENE 9.2 mph14.8 kmh 29.96 in1014.6 mb 0.00 in0.0 mm 0.00 in0.0 mm 0.00 in0.0 mm
03:00 PM 40.1°F4.5°C 26.5°F-3.1°C 58% 3.5 mph E5.6 kmh E 6.0 mph9.7 kmh 29.95 in1014.2 mb 0.00 in0.0 mm 0.00 in0.0 mm 0.00 in0.0 mm
03:10 PM 41.5°F5.3°C 26.6°F-3.0°C 55% 3.8 mph E6.1 kmh E 6.0 mph9.7 kmh 29.95 in1014.2 mb 0.00 in0.0 mm 0.00 in0.0 mm 0.00 in0.0 mm
03:20 PM 40.6°F4.8°C 27.0°F-2.8°C 58% 5.7 mph NE9.2 kmh NE 8.3 mph13.4 kmh 29.96 in1014.6 mb 0.00 in0.0 mm 0.00 in0.0 mm 0.00 in0.0 mm
03:30 PM 39.6°F4.2°C 26.0°F-3.3°C 58% 5.0 mph E8.0 kmh E 8.3 mph13.4 kmh 29.96 in1014.6 mb 0.00 in0.0 mm 0.00 in0.0 mm 0.00 in0.0 mm
03:40 PM 38.7°F3.7°C 27.6°F-2.4°C 64% 5.1 mph ESE8.2 kmh ESE 9.2 mph14.8 kmh 29.95 in1014.2 mb 0.00 in0.0 mm 0.00 in0.0 mm 0.00 in0.0 mm
03:50 PM 40.3°F4.6°C 27.9°F-2.3°C 61% 4.1 mph E6.6 kmh E 6.0 mph9.7 kmh 29.95 in1014.2 mb 0.00 in0.0 mm 0.00 in0.0 mm 0.00 in0.0 mm
04:00 PM 41.0°F5.0°C 26.1°F-3.3°C 55% 5.1 mph ENE8.2 kmh ENE 7.6 mph12.2 kmh 29.94 in1013.9 mb 0.00 in0.0 mm 0.00 in0.0 mm 0.00 in0.0 mm
04:10 PM 40.3°F4.6°C 25.4°F-3.7°C 55% 6.4 mph ESE10.3 kmh ESE 9.2 mph14.8 kmh 29.94 in1013.9 mb 0.00 in0.0 mm 0.00 in0.0 mm 0.00 in0.0 mm
04:20 PM 40.1°F4.5°C 25.7°F-3.5°C 56% 4.4 mph NE7.1 kmh NE 10.7 mph17.2 kmh 29.94 in1013.9 mb 0.00 in0.0 mm 0.00 in0.0 mm 0.00 in0.0 mm
04:30 PM 39.4°F4.1°C 26.7°F-2.9°C 60% 5.7 mph E9.2 kmh E 9.2 mph14.8 kmh 29.94 in1013.9 mb 0.00 in0.0 mm 0.00 in0.0 mm 0.00 in0.0 mm
04:40 PM 37.9°F3.3°C 28.7°F-1.8°C 69% 5.5 mph E8.9 kmh E 9.2 mph14.8 kmh 29.95 in1014.2 mb 0.00 in0.0 mm 0.00 in0.0 mm 0.00 in0.0 mm
04:50 PM 37.0°F2.8°C 28.5°F-1.9°C 71% 2.3 mph ENE3.7 kmh ENE 3.8 mph6.1 kmh 29.95 in1014.2 mb 0.00 in0.0 mm 0.00 in0.0 mm 0.00 in0.0 mm
05:00 PM 37.2°F2.9°C 29.4°F-1.4°C 73% 2.5 mph ENE4.0 kmh ENE 4.5 mph7.2 kmh 29.94 in1013.9 mb 0.00 in0.0 mm 0.00 in0.0 mm 0.00 in0.0 mm
05:10 PM 37.8°F3.2°C 28.5°F-1.9°C 69% 3.8 mph NE6.1 kmh NE 5.4 mph8.7 kmh 29.94 in1013.9 mb 0.00 in0.0 mm 0.00 in0.0 mm 0.00 in0.0 mm
05:20 PM 37.4°F3.0°C 29.6°F-1.3°C 73% 6.5 mph ENE10.5 kmh ENE 13.6 mph21.9 kmh 29.95 in1014.2 mb 0.00 in0.0 mm 0.00 in0.0 mm 0.00 in0.0 mm
05:30 PM 37.8°F3.2°C 30.2°F-1.0°C 74% 5.6 mph E9.0 kmh E 9.2 mph14.8 kmh 29.94 in1013.9 mb 0.00 in0.0 mm 0.00 in0.0 mm 0.00 in0.0 mm
05:40 PM 36.9°F2.7°C 30.3°F-0.9°C 77% 4.5 mph NNE7.2 kmh NNE 6.9 mph11.1 kmh 29.93 in1013.5 mb 0.00 in0.0 mm 0.00 in0.0 mm 0.00 in0.0 mm
05:50 PM 37.8°F3.2°C 30.9°F-0.6°C 76% 2.5 mph NE4.0 kmh NE 3.8 mph6.1 kmh 29.94 in1013.9 mb 0.00 in0.0 mm 0.00 in0.0 mm 0.00 in0.0 mm
06:00 PM 38.1°F3.4°C 30.2°F-1.0°C 73% 2.6 mph SW4.2 kmh SW 5.4 mph8.7 kmh 29.93 in1013.5 mb 0.00 in0.0 mm 0.00 in0.0 mm 0.00 in0.0 mm
06:10 PM 38.1°F3.4°C 30.6°F-0.8°C 74% 2.3 mph SSW3.7 kmh SSW 4.5 mph7.2 kmh 29.93 in1013.5 mb 0.00 in0.0 mm 0.00 in0.0 mm 0.00 in0.0 mm
06:20 PM 37.9°F3.3°C 30.1°F-1.1°C 73% 1.9 mph E3.1 kmh E 2.2 mph3.5 kmh 29.93 in1013.5 mb 0.00 in0.0 mm 0.00 in0.0 mm 0.00 in0.0 mm
06:30 PM 37.4°F3.0°C 29.9°F-1.2°C 74% 2.2 mph SSW3.5 kmh SSW 4.5 mph7.2 kmh 29.94 in1013.9 mb 0.00 in0.0 mm 0.00 in0.0 mm 0.00 in0.0 mm
06:40 PM 36.9°F2.7°C 31.3°F-0.4°C 80% 2.2 mph SW3.5 kmh SW 3.8 mph6.1 kmh 29.95 in1014.2 mb 0.00 in0.0 mm 0.00 in0.0 mm 0.00 in0.0 mm
06:50 PM 34.7°F1.5°C 32.1°F0.1°C 90% 3.1 mph ENE5.0 kmh ENE 4.5 mph7.2 kmh 29.94 in1013.9 mb 0.00 in0.0 mm 0.00 in0.0 mm 0.00 in0.0 mm
07:00 PM 34.2°F1.2°C 32.4°F0.2°C 93% 1.4 mph SE2.3 kmh SE 2.2 mph3.5 kmh 29.95 in1014.2 mb 0.00 in0.0 mm 0.00 in0.0 mm 0.00 in0.0 mm
07:10 PM 34.2°F1.2°C 32.4°F0.2°C 93% 2.3 mph NNW3.7 kmh NNW 6.0 mph9.7 kmh 29.94 in1013.9 mb 0.00 in0.0 mm 0.00 in0.0 mm 0.00 in0.0 mm
07:20 PM 34.0°F1.1°C 32.4°F0.2°C 94% 2.2 mph E3.5 kmh E 3.8 mph6.1 kmh 29.94 in1013.9 mb 0.00 in0.0 mm 0.00 in0.0 mm 0.00 in0.0 mm
07:30 PM 33.1°F0.6°C 32.3°F0.2°C 97% 6.2 mph ESE10.0 kmh ESE 9.8 mph15.8 kmh 29.95 in1014.2 mb 0.00 in0.0 mm 0.00 in0.0 mm 0.00 in0.0 mm
07:40 PM 32.5°F0.3°C 32.0°F0.0°C 98% 4.7 mph NE7.6 kmh NE 8.3 mph13.4 kmh 29.96 in1014.6 mb 0.00 in0.0 mm 0.00 in0.0 mm 0.00 in0.0 mm
07:50 PM 32.2°F0.1°C 31.7°F-0.2°C 98% 2.8 mph NE4.5 kmh NE 4.5 mph7.2 kmh 29.96 in1014.6 mb 0.00 in0.0 mm 0.00 in0.0 mm 0.00 in0.0 mm
08:00 PM 31.8°F-0.1°C 31.3°F-0.4°C 98% 1.7 mph E2.7 kmh E 3.1 mph5.0 kmh 29.96 in1014.6 mb 0.00 in0.0 mm 0.00 in0.0 mm 0.00 in0.0 mm
08:10 PM 31.6°F-0.2°C 31.1°F-0.5°C 98% 0.4 mph SW0.6 kmh SW 1.6 mph2.6 kmh 29.96 in1014.6 mb 0.00 in0.0 mm 0.00 in0.0 mm 0.00 in0.0 mm
08:20 PM 31.6°F-0.2°C 31.1°F-0.5°C 98% 1.2 mph NE1.9 kmh NE 1.6 mph2.6 kmh 29.96 in1014.6 mb 0.00 in0.0 mm 0.00 in0.0 mm 0.00 in0.0 mm
08:30 PM 31.5°F-0.3°C 31.0°F-0.6°C 98% 0.9 mph NNE1.4 kmh NNE 2.2 mph3.5 kmh 29.97 in1014.9 mb 0.00 in0.0 mm 0.00 in0.0 mm 0.00 in0.0 mm
08:40 PM 31.3°F-0.4°C 30.8°F-0.7°C 98% 0.6 mph S1.0 kmh S 1.6 mph2.6 kmh 29.97 in1014.9 mb 0.00 in0.0 mm 0.00 in0.0 mm 0.00 in0.0 mm
08:50 PM 31.3°F-0.4°C 30.8°F-0.7°C 98% 0.5 mph WSW0.8 kmh WSW 1.6 mph2.6 kmh 29.97 in1014.9 mb 0.00 in0.0 mm 0.00 in0.0 mm 0.00 in0.0 mm
09:00 PM 31.1°F-0.5°C 30.6°F-0.8°C 98% 0.4 mph SSW0.6 kmh SSW 1.6 mph2.6 kmh 29.97 in1014.9 mb 0.00 in0.0 mm 0.00 in0.0 mm 0.00 in0.0 mm
09:10 PM 31.1°F-0.5°C 30.6°F-0.8°C 98% 0.3 mph W0.5 kmh W 1.6 mph2.6 kmh 29.98 in1015.2 mb 0.00 in0.0 mm 0.00 in0.0 mm 0.00 in0.0 mm
09:20 PM 31.1°F-0.5°C 30.6°F-0.8°C 98% 0.6 mph SW1.0 kmh SW 1.6 mph2.6 kmh 29.98 in1015.2 mb 0.00 in0.0 mm 0.00 in0.0 mm 0.00 in0.0 mm
09:30 PM 31.1°F-0.5°C 30.9°F-0.6°C 99% 0.9 mph SW1.4 kmh SW 1.6 mph2.6 kmh 29.98 in1015.2 mb 0.00 in0.0 mm 0.00 in0.0 mm 0.00 in0.0 mm
09:40 PM 31.3°F-0.4°C 30.8°F-0.7°C 98% 0.4 mph SW0.6 kmh SW 0.7 mph1.1 kmh 29.98 in1015.2 mb 0.00 in0.0 mm 0.00 in0.0 mm 0.00 in0.0 mm
09:50 PM 31.5°F-0.3°C 31.0°F-0.6°C 98% 0.7 mph SSE1.1 kmh SSE 1.6 mph2.6 kmh 29.97 in1014.9 mb 0.00 in0.0 mm 0.00 in0.0 mm 0.00 in0.0 mm
10:00 PM 31.8°F-0.1°C 31.3°F-0.4°C 98% 1.9 mph ESE3.1 kmh ESE 3.8 mph6.1 kmh 29.98 in1015.2 mb 0.00 in0.0 mm 0.00 in0.0 mm 0.00 in0.0 mm
10:10 PM 32.0°F0.0°C 31.3°F-0.4°C 97% 3.0 mph E4.8 kmh E 4.5 mph7.2 kmh 29.98 in1015.2 mb 0.00 in0.0 mm 0.00 in0.0 mm 0.00 in0.0 mm
10:20 PM 32.0°F0.0°C 31.0°F-0.6°C 96% 2.6 mph E4.2 kmh E 3.8 mph6.1 kmh 29.98 in1015.2 mb 0.00 in0.0 mm 0.00 in0.0 mm 0.00 in0.0 mm
10:30 PM 32.0°F0.0°C 31.0°F-0.6°C 96% 1.8 mph E2.9 kmh E 3.1 mph5.0 kmh 29.99 in1015.6 mb 0.00 in0.0 mm 0.00 in0.0 mm 0.00 in0.0 mm
10:40 PM 32.0°F0.0°C 31.3°F-0.4°C 97% 2.3 mph ENE3.7 kmh ENE 6.9 mph11.1 kmh 29.99 in1015.6 mb 0.00 in0.0 mm 0.00 in0.0 mm 0.00 in0.0 mm
10:50 PM 31.6°F-0.2°C 31.1°F-0.5°C 98% 2.4 mph ENE3.9 kmh ENE 6.9 mph11.1 kmh 29.99 in1015.6 mb 0.00 in0.0 mm 0.00 in0.0 mm 0.00 in0.0 mm
11:00 PM 31.3°F-0.4°C 30.8°F-0.7°C 98% 1.2 mph N1.9 kmh N 2.2 mph3.5 kmh 29.99 in1015.6 mb 0.00 in0.0 mm 0.00 in0.0 mm 0.00 in0.0 mm
11:10 PM 31.1°F-0.5°C 30.6°F-0.8°C 98% Calm Calm -- 29.99 in1015.6 mb 0.00 in0.0 mm 0.00 in0.0 mm 0.00 in0.0 mm
11:20 PM 30.9°F-0.6°C 30.4°F-0.9°C 98% Calm Calm -- 29.99 in1015.6 mb 0.00 in0.0 mm 0.00 in0.0 mm 0.00 in0.0 mm
11:30 PM 30.7°F-0.7°C 30.3°F-0.9°C 98% Calm Calm -- 29.98 in1015.2 mb 0.00 in0.0 mm 0.00 in0.0 mm 0.00 in0.0 mm
11:40 PM 30.9°F-0.6°C 30.4°F-0.9°C 98% 0.4 mph NNW0.6 kmh NNW 1.6 mph2.6 kmh 29.99 in1015.6 mb 0.00 in0.0 mm 0.00 in0.0 mm 0.00 in0.0 mm
11:50 PM 31.1°F-0.5°C 30.9°F-0.6°C 99% 0.7 mph NE1.1 kmh NE 1.6 mph2.6 kmh 29.99 in1015.6 mb 0.00 in0.0 mm 0.00 in0.0 mm 0.00 in0.0 mm